sensor_id;sensor_type;location;lat;lon;timestamp;pressure;altitude;pressure_sealevel;temperature;humidity
81224;BME280;70698;44.402;18.522;2023-07-31T00:00:24;97414.88;;;19.65;81.49
81224;BME280;70698;44.402;18.522;2023-07-31T00:02:51;97428.22;;;19.65;81.49
81224;BME280;70698;44.402;18.522;2023-07-31T00:05:17;97421.34;;;19.69;80.90
81224;BME280;70698;44.402;18.522;2023-07-31T00:07:43;97420.09;;;19.60;81.35
81224;BME280;70698;44.402;18.522;2023-07-31T00:10:08;97425.66;;;19.59;81.54
81224;BME280;70698;44.402;18.522;2023-07-31T00:12:34;97430.63;;;19.55;81.95
81224;BME280;70698;44.402;18.522;2023-07-31T00:15:00;97424.03;;;19.58;81.67
81224;BME280;70698;44.402;18.522;2023-07-31T00:17:25;97406.88;;;19.42;81.79
81224;BME280;70698;44.402;18.522;2023-07-31T00:19:51;97410.13;;;19.44;81.63
81224;BME280;70698;44.402;18.522;2023-07-31T00:22:16;97415.44;;;19.32;82.20
81224;BME280;70698;44.402;18.522;2023-07-31T00:24:42;97428.50;;;19.34;82.32
81224;BME280;70698;44.402;18.522;2023-07-31T00:27:08;97428.16;;;19.30;82.24
81224;BME280;70698;44.402;18.522;2023-07-31T00:29:34;97429.44;;;19.28;82.08
81224;BME280;70698;44.402;18.522;2023-07-31T00:31:59;97430.03;;;19.30;82.02
81224;BME280;70698;44.402;18.522;2023-07-31T00:34:25;97432.09;;;19.28;82.21
81224;BME280;70698;44.402;18.522;2023-07-31T00:36:50;97435.56;;;19.28;82.52
81224;BME280;70698;44.402;18.522;2023-07-31T00:39:16;97420.06;;;19.25;82.15
81224;BME280;70698;44.402;18.522;2023-07-31T00:41:43;97439.06;;;19.29;82.27
81224;BME280;70698;44.402;18.522;2023-07-31T00:44:09;97424.78;;;19.23;82.39
81224;BME280;70698;44.402;18.522;2023-07-31T00:46:35;97432.78;;;19.23;82.40
81224;BME280;70698;44.402;18.522;2023-07-31T00:49:02;97417.88;;;19.22;82.36
81224;BME280;70698;44.402;18.522;2023-07-31T00:51:28;97423.28;;;19.16;81.86
81224;BME280;70698;44.402;18.522;2023-07-31T00:53:53;97424.53;;;19.13;82.22
81224;BME280;70698;44.402;18.522;2023-07-31T00:56:22;97430.09;;;19.00;81.68
81224;BME280;70698;44.402;18.522;2023-07-31T00:58:49;97410.50;;;18.95;82.04
81224;BME280;70698;44.402;18.522;2023-07-31T01:01:14;97424.97;;;18.87;82.43
81224;BME280;70698;44.402;18.522;2023-07-31T01:03:40;97422.09;;;19.00;81.68
81224;BME280;70698;44.402;18.522;2023-07-31T01:06:15;97426.34;;;18.89;81.82
81224;BME280;70698;44.402;18.522;2023-07-31T01:11:53;97415.13;;;18.87;83.55
81224;BME280;70698;44.402;18.522;2023-07-31T01:14:21;97414.88;;;18.89;83.60
81224;BME280;70698;44.402;18.522;2023-07-31T01:16:47;97427.09;;;18.97;83.36
81224;BME280;70698;44.402;18.522;2023-07-31T01:19:14;97426.84;;;18.98;83.28
81224;BME280;70698;44.402;18.522;2023-07-31T01:24:48;97421.63;;;18.91;83.25
81224;BME280;70698;44.402;18.522;2023-07-31T01:27:24;97426.22;;;18.84;83.60
81224;BME280;70698;44.402;18.522;2023-07-31T01:29:56;97424.59;;;18.83;83.57
81224;BME280;70698;44.402;18.522;2023-07-31T01:32:28;97424.25;;;18.80;83.85
81224;BME280;70698;44.402;18.522;2023-07-31T01:34:55;97419.97;;;18.79;83.57
81224;BME280;70698;44.402;18.522;2023-07-31T01:37:28;97424.25;;;18.80;83.92
81224;BME280;70698;44.402;18.522;2023-07-31T01:39:54;97417.84;;;18.69;84.22
81224;BME280;70698;44.402;18.522;2023-07-31T01:42:19;97411.00;;;18.62;84.09
81224;BME280;70698;44.402;18.522;2023-07-31T01:44:45;97423.09;;;18.76;84.00
81224;BME280;70698;44.402;18.522;2023-07-31T01:47:11;97417.63;;;18.71;84.08
81224;BME280;70698;44.402;18.522;2023-07-31T01:49:36;97417.03;;;18.69;84.10
81224;BME280;70698;44.402;18.522;2023-07-31T01:52:02;97417.03;;;18.69;84.20
81224;BME280;70698;44.402;18.522;2023-07-31T01:54:28;97413.66;;;18.62;84.32
81224;BME280;70698;44.402;18.522;2023-07-31T01:56:53;97407.19;;;18.58;84.65
81224;BME280;70698;44.402;18.522;2023-07-31T01:59:19;97394.50;;;18.53;84.52
81224;BME280;70698;44.402;18.522;2023-07-31T02:01:44;97414.69;;;18.61;84.58
81224;BME280;70698;44.402;18.522;2023-07-31T02:04:10;97417.72;;;18.64;84.55
81224;BME280;70698;44.402;18.522;2023-07-31T02:06:37;97403.25;;;18.60;84.23
81224;BME280;70698;44.402;18.522;2023-07-31T02:09:03;97404.19;;;18.66;84.31
81224;BME280;70698;44.402;18.522;2023-07-31T02:11:31;97405.22;;;18.65;84.24
81224;BME280;70698;44.402;18.522;2023-07-31T02:13:56;97405.44;;;18.63;84.24
81224;BME280;70698;44.402;18.522;2023-07-31T02:16:22;97403.84;;;18.62;84.43
81224;BME280;70698;44.402;18.522;2023-07-31T02:18:47;97402.78;;;18.63;84.39
81224;BME280;70698;44.402;18.522;2023-07-31T02:21:13;97404.75;;;18.56;83.32
81224;BME280;70698;44.402;18.522;2023-07-31T02:23:38;97410.63;;;18.58;83.69
81224;BME280;70698;44.402;18.522;2023-07-31T02:26:04;97410.28;;;18.55;83.77
81224;BME280;70698;44.402;18.522;2023-07-31T02:28:30;97408.78;;;18.59;84.20
81224;BME280;70698;44.402;18.522;2023-07-31T02:30:56;97408.91;;;18.64;84.21
81224;BME280;70698;44.402;18.522;2023-07-31T02:33:21;97410.53;;;18.65;83.95
81224;BME280;70698;44.402;18.522;2023-07-31T02:35:47;97413.88;;;18.60;84.05
81224;BME280;70698;44.402;18.522;2023-07-31T02:38:13;97412.34;;;18.53;83.96
81224;BME280;70698;44.402;18.522;2023-07-31T02:40:41;97415.44;;;18.49;83.86
81224;BME280;70698;44.402;18.522;2023-07-31T02:43:07;97414.63;;;18.49;83.58
81224;BME280;70698;44.402;18.522;2023-07-31T02:45:33;97421.09;;;18.41;84.27
81224;BME280;70698;44.402;18.522;2023-07-31T02:47:59;97417.81;;;18.39;84.62
81224;BME280;70698;44.402;18.522;2023-07-31T02:50:24;97415.56;;;18.25;83.92
81224;BME280;70698;44.402;18.522;2023-07-31T02:52:50;97425.25;;;18.19;83.67
81224;BME280;70698;44.402;18.522;2023-07-31T02:55:15;97422.53;;;18.08;84.39
81224;BME280;70698;44.402;18.522;2023-07-31T02:57:41;97429.47;;;18.08;84.44
81224;BME280;70698;44.402;18.522;2023-07-31T03:00:07;97428.06;;;18.06;84.22
81224;BME280;70698;44.402;18.522;2023-07-31T03:02:33;97428.25;;;17.93;84.35
81224;BME280;70698;44.402;18.522;2023-07-31T03:04:58;97431.09;;;17.91;84.51
81224;BME280;70698;44.402;18.522;2023-07-31T03:07:26;97440.03;;;17.97;83.95
81224;BME280;70698;44.402;18.522;2023-07-31T03:09:52;97427.69;;;17.84;83.99
81224;BME280;70698;44.402;18.522;2023-07-31T03:12:19;97436.94;;;17.82;84.41
81224;BME280;70698;44.402;18.522;2023-07-31T03:14:45;97445.34;;;17.79;85.09
81224;BME280;70698;44.402;18.522;2023-07-31T03:17:11;97438.84;;;17.75;84.93
81224;BME280;70698;44.402;18.522;2023-07-31T03:19:37;97439.44;;;17.77;84.86
81224;BME280;70698;44.402;18.522;2023-07-31T03:22:03;97436.19;;;17.75;84.67
81224;BME280;70698;44.402;18.522;2023-07-31T03:24:28;97447.94;;;17.85;84.48
81224;BME280;70698;44.402;18.522;2023-07-31T03:26:54;97442.97;;;17.89;84.01
81224;BME280;70698;44.402;18.522;2023-07-31T03:29:21;97453.03;;;17.87;83.77
81224;BME280;70698;44.402;18.522;2023-07-31T03:31:47;97450.66;;;17.79;83.87
81224;BME280;70698;44.402;18.522;2023-07-31T03:34:12;97446.44;;;17.71;84.46
81224;BME280;70698;44.402;18.522;2023-07-31T03:36:38;97447.13;;;17.67;84.75
81224;BME280;70698;44.402;18.522;2023-07-31T03:39:04;97455.91;;;17.67;85.23
81224;BME280;70698;44.402;18.522;2023-07-31T03:41:30;97452.06;;;17.81;85.85
81224;BME280;70698;44.402;18.522;2023-07-31T03:43:55;97447.41;;;17.95;85.82
81224;BME280;70698;44.402;18.522;2023-07-31T03:46:24;97447.28;;;17.90;83.78
81224;BME280;70698;44.402;18.522;2023-07-31T03:48:50;97462.25;;;17.84;84.02
81224;BME280;70698;44.402;18.522;2023-07-31T03:51:16;97471.25;;;17.83;83.54
81224;BME280;70698;44.402;18.522;2023-07-31T03:53:43;97475.25;;;17.74;83.79
81224;BME280;70698;44.402;18.522;2023-07-31T03:56:09;97481.91;;;17.83;83.63
81224;BME280;70698;44.402;18.522;2023-07-31T03:58:35;97473.84;;;17.72;83.73
81224;BME280;70698;44.402;18.522;2023-07-31T04:01:02;97489.09;;;17.83;83.64
81224;BME280;70698;44.402;18.522;2023-07-31T04:03:28;97494.25;;;17.78;84.16
81224;BME280;70698;44.402;18.522;2023-07-31T04:05:54;97489.78;;;17.72;84.75
81224;BME280;70698;44.402;18.522;2023-07-31T04:08:23;97477.63;;;17.57;85.28
81224;BME280;70698;44.402;18.522;2023-07-31T04:10:49;97493.59;;;17.57;85.65
81224;BME280;70698;44.402;18.522;2023-07-31T04:13:15;97478.25;;;17.59;84.52
81224;BME280;70698;44.402;18.522;2023-07-31T04:15:41;97491.31;;;17.61;84.42
81224;BME280;70698;44.402;18.522;2023-07-31T04:18:06;97492.72;;;17.63;84.26
81224;BME280;70698;44.402;18.522;2023-07-31T04:20:32;97492.09;;;17.68;84.04
81224;BME280;70698;44.402;18.522;2023-07-31T04:22:58;97496.75;;;17.73;83.85
81224;BME280;70698;44.402;18.522;2023-07-31T04:25:24;97502.22;;;17.78;84.32
81224;BME280;70698;44.402;18.522;2023-07-31T04:27:49;97505.59;;;17.85;84.63
81224;BME280;70698;44.402;18.522;2023-07-31T04:30:15;97506.59;;;17.90;84.23
81224;BME280;70698;44.402;18.522;2023-07-31T04:32:40;97507.19;;;17.92;85.00
81224;BME280;70698;44.402;18.522;2023-07-31T04:35:06;97518.56;;;17.99;84.75
81224;BME280;70698;44.402;18.522;2023-07-31T04:37:32;97511.03;;;18.15;83.59
81224;BME280;70698;44.402;18.522;2023-07-31T04:39:57;97513.72;;;18.33;84.07
81224;BME280;70698;44.402;18.522;2023-07-31T04:42:23;97518.28;;;18.44;84.14
81224;BME280;70698;44.402;18.522;2023-07-31T04:44:48;97503.47;;;18.48;84.58
81224;BME280;70698;44.402;18.522;2023-07-31T04:47:14;97503.56;;;18.60;84.11
81224;BME280;70698;44.402;18.522;2023-07-31T04:49:40;97495.59;;;18.60;83.91
81224;BME280;70698;44.402;18.522;2023-07-31T04:52:05;97496.53;;;18.65;83.58
81224;BME280;70698;44.402;18.522;2023-07-31T04:54:31;97502.56;;;18.90;83.29
81224;BME280;70698;44.402;18.522;2023-07-31T04:56:56;97520.06;;;18.98;83.32
81224;BME280;70698;44.402;18.522;2023-07-31T04:59:22;97512.47;;;19.13;82.41
81224;BME280;70698;44.402;18.522;2023-07-31T05:01:48;97513.06;;;19.15;82.28
81224;BME280;70698;44.402;18.522;2023-07-31T05:04:14;97506.69;;;19.28;82.00
81224;BME280;70698;44.402;18.522;2023-07-31T05:06:40;97500.22;;;19.24;82.18
81224;BME280;70698;44.402;18.522;2023-07-31T05:09:06;97519.00;;;19.29;82.09
81224;BME280;70698;44.402;18.522;2023-07-31T05:11:32;97507.03;;;19.20;82.67
81224;BME280;70698;44.402;18.522;2023-07-31T05:13:57;97511.13;;;19.22;83.01
81224;BME280;70698;44.402;18.522;2023-07-31T05:16:23;97508.94;;;19.31;82.37
81224;BME280;70698;44.402;18.522;2023-07-31T05:18:48;97505.22;;;19.44;81.73
81224;BME280;70698;44.402;18.522;2023-07-31T05:21:14;97491.25;;;19.48;81.96
81224;BME280;70698;44.402;18.522;2023-07-31T05:23:39;97501.00;;;19.54;81.82
81224;BME280;70698;44.402;18.522;2023-07-31T05:26:06;97496.59;;;19.60;81.22
81224;BME280;70698;44.402;18.522;2023-07-31T05:28:34;97495.31;;;19.74;81.09
81224;BME280;70698;44.402;18.522;2023-07-31T05:31:01;97489.41;;;19.84;80.08
81224;BME280;70698;44.402;18.522;2023-07-31T05:33:27;97494.97;;;19.94;79.94
81224;BME280;70698;44.402;18.522;2023-07-31T05:35:52;97493.66;;;20.19;79.23
81224;BME280;70698;44.402;18.522;2023-07-31T05:38:18;97488.22;;;20.26;78.80
81224;BME280;70698;44.402;18.522;2023-07-31T05:40:44;97485.44;;;20.21;79.36
81224;BME280;70698;44.402;18.522;2023-07-31T05:43:09;97486.81;;;20.24;79.52
81224;BME280;70698;44.402;18.522;2023-07-31T05:45:36;97491.03;;;20.31;79.12
81224;BME280;70698;44.402;18.522;2023-07-31T05:48:02;97488.88;;;20.45;78.45
81224;BME280;70698;44.402;18.522;2023-07-31T05:50:28;97482.00;;;20.60;78.19
81224;BME280;70698;44.402;18.522;2023-07-31T05:52:54;97485.81;;;20.65;77.99
81224;BME280;70698;44.402;18.522;2023-07-31T05:55:19;97483.06;;;21.04;75.85
81224;BME280;70698;44.402;18.522;2023-07-31T05:57:46;97477.38;;;21.29;75.71
81224;BME280;70698;44.402;18.522;2023-07-31T06:00:12;97485.97;;;21.48;76.16
81224;BME280;70698;44.402;18.522;2023-07-31T06:02:38;97487.00;;;21.47;76.08
81224;BME280;70698;44.402;18.522;2023-07-31T06:05:04;97488.97;;;21.52;75.43
81224;BME280;70698;44.402;18.522;2023-07-31T06:07:31;97483.69;;;21.73;74.00
81224;BME280;70698;44.402;18.522;2023-07-31T06:09:57;97491.06;;;21.83;74.91
81224;BME280;70698;44.402;18.522;2023-07-31T06:12:28;97491.25;;;21.76;74.18
81224;BME280;70698;44.402;18.522;2023-07-31T06:14:54;97481.81;;;21.90;71.07
81224;BME280;70698;44.402;18.522;2023-07-31T06:17:20;97496.81;;;21.75;68.89
81224;BME280;70698;44.402;18.522;2023-07-31T06:19:46;97496.97;;;21.68;68.44
81224;BME280;70698;44.402;18.522;2023-07-31T06:22:12;97488.72;;;21.53;68.17
81224;BME280;70698;44.402;18.522;2023-07-31T06:24:38;97499.59;;;21.46;67.94
81224;BME280;70698;44.402;18.522;2023-07-31T06:27:04;97490.25;;;21.32;68.08
81224;BME280;70698;44.402;18.522;2023-07-31T06:29:31;97485.66;;;21.44;67.79
81224;BME280;70698;44.402;18.522;2023-07-31T06:31:57;97495.13;;;21.52;67.40
81224;BME280;70698;44.402;18.522;2023-07-31T06:34:22;97487.19;;;21.57;67.31
81224;BME280;70698;44.402;18.522;2023-07-31T06:36:48;97493.09;;;21.59;67.35
81224;BME280;70698;44.402;18.522;2023-07-31T06:39:13;97499.09;;;21.50;67.37
81224;BME280;70698;44.402;18.522;2023-07-31T06:41:39;97502.91;;;21.54;67.38
81224;BME280;70698;44.402;18.522;2023-07-31T06:44:09;97500.31;;;21.59;67.44
81224;BME280;70698;44.402;18.522;2023-07-31T06:46:35;97504.63;;;21.60;67.03
81224;BME280;70698;44.402;18.522;2023-07-31T06:49:00;97506.72;;;21.41;66.43
81224;BME280;70698;44.402;18.522;2023-07-31T06:51:26;97511.81;;;21.42;65.79
81224;BME280;70698;44.402;18.522;2023-07-31T06:53:52;97517.88;;;21.38;65.81
81224;BME280;70698;44.402;18.522;2023-07-31T06:56:17;97513.63;;;21.37;65.10
81224;BME280;70698;44.402;18.522;2023-07-31T06:58:43;97510.84;;;21.65;64.02
81224;BME280;70698;44.402;18.522;2023-07-31T07:01:08;97515.38;;;21.98;64.04
81224;BME280;70698;44.402;18.522;2023-07-31T07:03:34;97514.38;;;22.21;63.50
81224;BME280;70698;44.402;18.522;2023-07-31T07:06:00;97510.91;;;22.42;62.58
81224;BME280;70698;44.402;18.522;2023-07-31T07:08:26;97518.53;;;22.72;63.14
81224;BME280;70698;44.402;18.522;2023-07-31T07:10:52;97519.91;;;23.01;61.98
81224;BME280;70698;44.402;18.522;2023-07-31T07:13:17;97512.41;;;22.77;60.17
81224;BME280;70698;44.402;18.522;2023-07-31T07:15:48;97516.19;;;22.59;61.04
81224;BME280;70698;44.402;18.522;2023-07-31T07:18:13;97522.00;;;22.51;60.63
81224;BME280;70698;44.402;18.522;2023-07-31T07:20:39;97518.56;;;22.77;60.40
81224;BME280;70698;44.402;18.522;2023-07-31T07:23:05;97521.19;;;22.72;60.93
81224;BME280;70698;44.402;18.522;2023-07-31T07:25:31;97514.75;;;22.29;61.56
81224;BME280;70698;44.402;18.522;2023-07-31T07:27:57;97511.16;;;22.41;61.85
81224;BME280;70698;44.402;18.522;2023-07-31T07:30:23;97524.00;;;22.22;61.97
81224;BME280;70698;44.402;18.522;2023-07-31T07:32:50;97528.09;;;22.08;63.66
81224;BME280;70698;44.402;18.522;2023-07-31T07:35:16;97536.88;;;21.86;63.45
81224;BME280;70698;44.402;18.522;2023-07-31T07:37:41;97534.69;;;22.00;63.17
81224;BME280;70698;44.402;18.522;2023-07-31T07:40:07;97542.41;;;21.97;63.02
81224;BME280;70698;44.402;18.522;2023-07-31T07:42:33;97544.16;;;22.08;63.01
81224;BME280;70698;44.402;18.522;2023-07-31T07:44:59;97538.25;;;22.44;62.13
81224;BME280;70698;44.402;18.522;2023-07-31T07:47:24;97545.38;;;22.55;61.85
81224;BME280;70698;44.402;18.522;2023-07-31T07:49:50;97532.44;;;22.52;62.84
81224;BME280;70698;44.402;18.522;2023-07-31T07:52:15;97543.50;;;22.56;62.44
81224;BME280;70698;44.402;18.522;2023-07-31T07:54:41;97529.41;;;22.65;61.99
81224;BME280;70698;44.402;18.522;2023-07-31T07:57:06;97537.19;;;22.67;61.07
81224;BME280;70698;44.402;18.522;2023-07-31T07:59:32;97529.72;;;22.69;60.85
81224;BME280;70698;44.402;18.522;2023-07-31T08:01:57;97522.19;;;22.44;61.68
81224;BME280;70698;44.402;18.522;2023-07-31T08:04:23;97536.94;;;22.47;61.86
81224;BME280;70698;44.402;18.522;2023-07-31T08:06:49;97523.47;;;22.42;62.24
81224;BME280;70698;44.402;18.522;2023-07-31T08:09:14;97525.72;;;22.50;61.51
81224;BME280;70698;44.402;18.522;2023-07-31T08:11:40;97529.34;;;22.60;60.84
81224;BME280;70698;44.402;18.522;2023-07-31T08:14:06;97529.69;;;22.86;60.34
81224;BME280;70698;44.402;18.522;2023-07-31T08:16:31;97530.16;;;23.31;58.30
81224;BME280;70698;44.402;18.522;2023-07-31T08:18:57;97535.09;;;23.44;57.57
81224;BME280;70698;44.402;18.522;2023-07-31T08:21:23;97533.03;;;23.25;59.43
81224;BME280;70698;44.402;18.522;2023-07-31T08:23:48;97533.91;;;23.30;58.60
81224;BME280;70698;44.402;18.522;2023-07-31T08:26:15;97538.00;;;23.11;60.31
81224;BME280;70698;44.402;18.522;2023-07-31T08:28:41;97538.25;;;22.88;60.00
81224;BME280;70698;44.402;18.522;2023-07-31T08:31:07;97543.81;;;23.30;58.38
81224;BME280;70698;44.402;18.522;2023-07-31T08:33:32;97534.38;;;23.49;56.87
81224;BME280;70698;44.402;18.522;2023-07-31T08:35:58;97537.72;;;23.39;57.98
81224;BME280;70698;44.402;18.522;2023-07-31T08:38:26;97540.53;;;23.49;57.29
81224;BME280;70698;44.402;18.522;2023-07-31T08:40:51;97527.97;;;23.55;56.97
81224;BME280;70698;44.402;18.522;2023-07-31T08:43:18;97542.41;;;23.81;56.12
81224;BME280;70698;44.402;18.522;2023-07-31T08:45:46;97530.78;;;23.70;56.77
81224;BME280;70698;44.402;18.522;2023-07-31T08:48:15;97526.91;;;23.93;55.94
81224;BME280;70698;44.402;18.522;2023-07-31T08:50:41;97533.44;;;24.07;56.52
81224;BME280;70698;44.402;18.522;2023-07-31T08:53:07;97529.16;;;24.53;57.25
81224;BME280;70698;44.402;18.522;2023-07-31T08:55:33;97529.44;;;24.57;53.97
81224;BME280;70698;44.402;18.522;2023-07-31T08:58:00;97534.47;;;23.96;53.67
81224;BME280;70698;44.402;18.522;2023-07-31T09:00:28;97525.56;;;24.27;54.00
81224;BME280;70698;44.402;18.522;2023-07-31T09:03:06;97528.91;;;24.50;54.84
81224;BME280;70698;44.402;18.522;2023-07-31T09:05:36;97521.66;;;24.50;53.72
81224;BME280;70698;44.402;18.522;2023-07-31T09:08:01;97518.88;;;24.35;51.77
81224;BME280;70698;44.402;18.522;2023-07-31T09:10:28;97511.66;;;24.35;52.76
81224;BME280;70698;44.402;18.522;2023-07-31T09:12:54;97517.97;;;24.81;53.48
81224;BME280;70698;44.402;18.522;2023-07-31T09:15:21;97516.56;;;24.54;51.54
81224;BME280;70698;44.402;18.522;2023-07-31T09:17:58;97513.31;;;24.52;52.26
81224;BME280;70698;44.402;18.522;2023-07-31T09:20:24;97515.75;;;24.11;53.13
81224;BME280;70698;44.402;18.522;2023-07-31T09:22:50;97509.38;;;24.74;53.42
81224;BME280;70698;44.402;18.522;2023-07-31T09:27:50;97510.03;;;25.17;52.19
81224;BME280;70698;44.402;18.522;2023-07-31T09:30:17;97520.13;;;24.74;51.90
81224;BME280;70698;44.402;18.522;2023-07-31T09:32:47;97510.66;;;24.62;51.27
81224;BME280;70698;44.402;18.522;2023-07-31T09:37:53;97508.88;;;24.20;52.06
81224;BME280;70698;44.402;18.522;2023-07-31T09:40:48;97511.19;;;24.54;53.31
81224;BME280;70698;44.402;18.522;2023-07-31T09:43:18;97493.09;;;25.21;53.07
81224;BME280;70698;44.402;18.522;2023-07-31T09:45:45;97494.75;;;25.53;51.15
81224;BME280;70698;44.402;18.522;2023-07-31T09:48:13;97488.00;;;25.86;49.77
81224;BME280;70698;44.402;18.522;2023-07-31T09:50:45;97483.38;;;26.06;48.56
81224;BME280;70698;44.402;18.522;2023-07-31T09:53:11;97489.91;;;25.90;48.17
81224;BME280;70698;44.402;18.522;2023-07-31T09:55:38;97493.09;;;25.11;45.72
81224;BME280;70698;44.402;18.522;2023-07-31T09:58:05;97474.25;;;25.06;47.65
81224;BME280;70698;44.402;18.522;2023-07-31T10:00:32;97487.22;;;25.29;46.31
81224;BME280;70698;44.402;18.522;2023-07-31T10:03:04;97484.94;;;24.86;45.94
81224;BME280;70698;44.402;18.522;2023-07-31T10:05:46;97481.53;;;25.31;47.59
81224;BME280;70698;44.402;18.522;2023-07-31T10:08:15;97477.41;;;24.83;45.75
81224;BME280;70698;44.402;18.522;2023-07-31T10:10:43;97473.34;;;24.70;45.87
81224;BME280;70698;44.402;18.522;2023-07-31T10:13:09;97479.47;;;24.51;46.14
81224;BME280;70698;44.402;18.522;2023-07-31T10:15:35;97478.63;;;24.40;46.47
81224;BME280;70698;44.402;18.522;2023-07-31T10:18:01;97474.78;;;24.98;46.35
81224;BME280;70698;44.402;18.522;2023-07-31T10:20:29;97457.28;;;26.02;44.24
81224;BME280;70698;44.402;18.522;2023-07-31T10:22:55;97460.63;;;26.53;41.99
81224;BME280;70698;44.402;18.522;2023-07-31T10:25:22;97454.97;;;26.54;41.20
81224;BME280;70698;44.402;18.522;2023-07-31T10:27:49;97459.16;;;26.76;41.94
81224;BME280;70698;44.402;18.522;2023-07-31T10:30:15;97458.81;;;27.65;42.69
81224;BME280;70698;44.402;18.522;2023-07-31T10:32:43;97449.06;;;27.74;39.45
81224;BME280;70698;44.402;18.522;2023-07-31T10:35:10;97446.41;;;27.93;39.57
81224;BME280;70698;44.402;18.522;2023-07-31T10:37:41;97440.75;;;27.32;40.90
81224;BME280;70698;44.402;18.522;2023-07-31T10:40:27;97449.16;;;26.81;41.13
81224;BME280;70698;44.402;18.522;2023-07-31T10:42:54;97437.78;;;27.33;40.19
81224;BME280;70698;44.402;18.522;2023-07-31T10:45:35;97443.19;;;27.91;39.50
81224;BME280;70698;44.402;18.522;2023-07-31T10:48:07;97421.94;;;28.08;39.08
81224;BME280;70698;44.402;18.522;2023-07-31T10:50:38;97427.88;;;27.58;39.24
81224;BME280;70698;44.402;18.522;2023-07-31T10:53:31;97429.97;;;26.44;40.36
81224;BME280;70698;44.402;18.522;2023-07-31T10:56:01;97424.19;;;25.86;41.66
81224;BME280;70698;44.402;18.522;2023-07-31T10:58:27;97425.81;;;25.82;42.26
81224;BME280;70698;44.402;18.522;2023-07-31T11:00:57;97428.28;;;25.68;44.06
81224;BME280;70698;44.402;18.522;2023-07-31T11:03:47;97425.00;;;25.82;43.89
81224;BME280;70698;44.402;18.522;2023-07-31T11:06:19;97423.41;;;25.76;42.31
81224;BME280;70698;44.402;18.522;2023-07-31T11:08:47;97418.13;;;26.89;39.16
81224;BME280;70698;44.402;18.522;2023-07-31T11:11:14;97408.06;;;27.91;39.96
81224;BME280;70698;44.402;18.522;2023-07-31T11:13:45;97422.94;;;28.17;40.73
81224;BME280;70698;44.402;18.522;2023-07-31T11:16:14;97411.94;;;27.22;40.53
81224;BME280;70698;44.402;18.522;2023-07-31T11:18:42;97415.84;;;27.06;41.23
81224;BME280;70698;44.402;18.522;2023-07-31T11:21:08;97411.94;;;26.34;43.04
81224;BME280;70698;44.402;18.522;2023-07-31T11:23:37;97415.28;;;25.96;42.88
81224;BME280;70698;44.402;18.522;2023-07-31T11:26:05;97406.53;;;26.39;40.91
81224;BME280;70698;44.402;18.522;2023-07-31T11:28:35;97409.72;;;27.63;39.12
81224;BME280;70698;44.402;18.522;2023-07-31T11:31:01;97412.09;;;28.41;38.19
81224;BME280;70698;44.402;18.522;2023-07-31T11:33:27;97407.03;;;28.77;36.60
81224;BME280;70698;44.402;18.522;2023-07-31T11:35:53;97409.13;;;29.36;36.39
81224;BME280;70698;44.402;18.522;2023-07-31T11:38:26;97403.25;;;29.62;36.60
81224;BME280;70698;44.402;18.522;2023-07-31T11:40:59;97404.16;;;29.71;34.89
81224;BME280;70698;44.402;18.522;2023-07-31T11:43:25;97409.53;;;28.50;34.15
81224;BME280;70698;44.402;18.522;2023-07-31T11:45:54;97390.44;;;29.35;33.62
81224;BME280;70698;44.402;18.522;2023-07-31T11:48:24;97397.66;;;29.85;36.50
81224;BME280;70698;44.402;18.522;2023-07-31T11:50:53;97398.84;;;29.52;35.91
81224;BME280;70698;44.402;18.522;2023-07-31T11:53:26;97395.56;;;29.04;36.87
81224;BME280;70698;44.402;18.522;2023-07-31T11:55:52;97408.34;;;27.90;37.88
81224;BME280;70698;44.402;18.522;2023-07-31T11:58:18;97400.81;;;26.95;39.10
81224;BME280;70698;44.402;18.522;2023-07-31T12:00:45;97408.41;;;26.44;40.58
81224;BME280;70698;44.402;18.522;2023-07-31T12:03:11;97403.91;;;27.46;40.57
81224;BME280;70698;44.402;18.522;2023-07-31T12:05:37;97400.66;;;28.49;37.39
81224;BME280;70698;44.402;18.522;2023-07-31T12:08:09;97403.41;;;29.19;36.81
81224;BME280;70698;44.402;18.522;2023-07-31T12:10:36;97379.75;;;29.25;34.13
81224;BME280;70698;44.402;18.522;2023-07-31T12:13:07;97385.03;;;29.81;34.85
81224;BME280;70698;44.402;18.522;2023-07-31T12:15:38;97382.09;;;30.46;34.79
81224;BME280;70698;44.402;18.522;2023-07-31T12:18:06;97377.63;;;30.77;31.04
81224;BME280;70698;44.402;18.522;2023-07-31T12:20:32;97372.91;;;30.69;31.90
81224;BME280;70698;44.402;18.522;2023-07-31T12:22:58;97373.09;;;30.36;32.59
81224;BME280;70698;44.402;18.522;2023-07-31T12:25:29;97366.44;;;30.43;31.82
81224;BME280;70698;44.402;18.522;2023-07-31T12:27:54;97379.22;;;29.74;32.37
81224;BME280;70698;44.402;18.522;2023-07-31T12:30:34;97361.78;;;30.70;29.61
81224;BME280;70698;44.402;18.522;2023-07-31T12:33:15;97361.09;;;31.93;29.00
81224;BME280;70698;44.402;18.522;2023-07-31T12:35:44;97352.81;;;32.64;28.84
81224;BME280;70698;44.402;18.522;2023-07-31T12:38:10;97349.56;;;31.79;28.57
81224;BME280;70698;44.402;18.522;2023-07-31T12:40:39;97345.13;;;30.63;28.38
81224;BME280;70698;44.402;18.522;2023-07-31T12:43:06;97331.53;;;30.27;29.18
81224;BME280;70698;44.402;18.522;2023-07-31T12:45:32;97330.97;;;31.11;28.01
81224;BME280;70698;44.402;18.522;2023-07-31T12:47:58;97333.59;;;32.60;27.35
81224;BME280;70698;44.402;18.522;2023-07-31T12:50:24;97315.91;;;33.90;24.16
81224;BME280;70698;44.402;18.522;2023-07-31T12:52:51;97323.72;;;33.54;24.94
81224;BME280;70698;44.402;18.522;2023-07-31T12:55:17;97319.09;;;32.08;27.93
81224;BME280;70698;44.402;18.522;2023-07-31T12:57:44;97314.25;;;31.17;28.45
81224;BME280;70698;44.402;18.522;2023-07-31T13:00:10;97315.41;;;31.95;28.25